sensor_id;sensor_type;location;lat;lon;timestamp;temperature;humidity
44431;DHT22;30135;47.866;-4.222;2023-02-25T00:01:26;9.50;82.70
44431;DHT22;30135;47.866;-4.222;2023-02-25T00:03:54;9.50;82.80
44431;DHT22;30135;47.866;-4.222;2023-02-25T00:06:21;9.40;82.80
44431;DHT22;30135;47.866;-4.222;2023-02-25T00:08:48;9.40;82.70
44431;DHT22;30135;47.866;-4.222;2023-02-25T00:11:16;9.40;82.70
44431;DHT22;30135;47.866;-4.222;2023-02-25T00:13:43;9.40;82.80
44431;DHT22;30135;47.866;-4.222;2023-02-25T00:16:10;9.40;82.70
44431;DHT22;30135;47.866;-4.222;2023-02-25T00:18:37;9.40;82.70
44431;DHT22;30135;47.866;-4.222;2023-02-25T00:21:06;9.40;82.80
44431;DHT22;30135;47.866;-4.222;2023-02-25T00:23:43;9.40;82.80
44431;DHT22;30135;47.866;-4.222;2023-02-25T00:26:14;9.30;83.60
44431;DHT22;30135;47.866;-4.222;2023-02-25T00:28:41;9.30;82.80
44431;DHT22;30135;47.866;-4.222;2023-02-25T00:31:17;9.30;82.80
44431;DHT22;30135;47.866;-4.222;2023-02-25T00:33:44;9.30;82.90
44431;DHT22;30135;47.866;-4.222;2023-02-25T00:36:14;9.30;83.00
44431;DHT22;30135;47.866;-4.222;2023-02-25T00:38:49;9.20;82.80
44431;DHT22;30135;47.866;-4.222;2023-02-25T00:41:19;9.20;83.00
44431;DHT22;30135;47.866;-4.222;2023-02-25T00:43:54;9.20;83.00
44431;DHT22;30135;47.866;-4.222;2023-02-25T00:46:22;9.20;83.00
44431;DHT22;30135;47.866;-4.222;2023-02-25T00:48:48;9.10;83.00
44431;DHT22;30135;47.866;-4.222;2023-02-25T00:51:17;9.20;83.10
44431;DHT22;30135;47.866;-4.222;2023-02-25T00:53:44;9.10;83.00
44431;DHT22;30135;47.866;-4.222;2023-02-25T00:56:12;9.10;83.20
44431;DHT22;30135;47.866;-4.222;2023-02-25T00:58:41;9.10;83.20
44431;DHT22;30135;47.866;-4.222;2023-02-25T01:03:51;9.00;83.20
44431;DHT22;30135;47.866;-4.222;2023-02-25T01:06:18;9.00;83.20
44431;DHT22;30135;47.866;-4.222;2023-02-25T01:08:44;9.00;83.20
44431;DHT22;30135;47.866;-4.222;2023-02-25T01:11:23;9.00;83.30
44431;DHT22;30135;47.866;-4.222;2023-02-25T01:13:55;9.00;83.40
44431;DHT22;30135;47.866;-4.222;2023-02-25T01:16:24;9.00;83.30
44431;DHT22;30135;47.866;-4.222;2023-02-25T01:18:53;8.90;83.30
44431;DHT22;30135;47.866;-4.222;2023-02-25T01:21:23;8.90;83.30
44431;DHT22;30135;47.866;-4.222;2023-02-25T01:24:03;8.90;83.20
44431;DHT22;30135;47.866;-4.222;2023-02-25T01:26:40;8.90;83.30
44431;DHT22;30135;47.866;-4.222;2023-02-25T01:29:08;8.80;83.20
44431;DHT22;30135;47.866;-4.222;2023-02-25T01:31:37;8.80;83.30
44431;DHT22;30135;47.866;-4.222;2023-02-25T01:34:05;8.80;83.30
44431;DHT22;30135;47.866;-4.222;2023-02-25T01:36:33;8.80;83.40
44431;DHT22;30135;47.866;-4.222;2023-02-25T01:39:00;8.80;83.40
44431;DHT22;30135;47.866;-4.222;2023-02-25T01:41:28;8.80;83.40
44431;DHT22;30135;47.866;-4.222;2023-02-25T01:44:14;8.80;83.50
44431;DHT22;30135;47.866;-4.222;2023-02-25T01:46:44;8.80;83.30
44431;DHT22;30135;47.866;-4.222;2023-02-25T01:49:21;8.80;83.40
44431;DHT22;30135;47.866;-4.222;2023-02-25T01:51:52;8.70;83.40
44431;DHT22;30135;47.866;-4.222;2023-02-25T01:54:20;8.70;83.30
44431;DHT22;30135;47.866;-4.222;2023-02-25T01:56:50;8.70;83.30
44431;DHT22;30135;47.866;-4.222;2023-02-25T01:59:19;8.70;83.40
44431;DHT22;30135;47.866;-4.222;2023-02-25T02:01:47;8.70;83.50
44431;DHT22;30135;47.866;-4.222;2023-02-25T02:04:14;8.60;83.40
44431;DHT22;30135;47.866;-4.222;2023-02-25T02:06:43;8.60;83.30
44431;DHT22;30135;47.866;-4.222;2023-02-25T02:09:13;8.60;83.40
44431;DHT22;30135;47.866;-4.222;2023-02-25T02:11:41;8.60;83.40
44431;DHT22;30135;47.866;-4.222;2023-02-25T02:14:10;8.60;83.40
44431;DHT22;30135;47.866;-4.222;2023-02-25T02:16:54;8.60;83.50
44431;DHT22;30135;47.866;-4.222;2023-02-25T02:37:37;8.50;83.60
44431;DHT22;30135;47.866;-4.222;2023-02-25T02:40:18;8.50;83.70
44431;DHT22;30135;47.866;-4.222;2023-02-25T02:43:11;8.60;83.80
44431;DHT22;30135;47.866;-4.222;2023-02-25T02:48:59;8.50;83.90
44431;DHT22;30135;47.866;-4.222;2023-02-25T02:51:33;8.50;83.90
44431;DHT22;30135;47.866;-4.222;2023-02-25T02:54:04;8.50;84.20
44431;DHT22;30135;47.866;-4.222;2023-02-25T02:56:32;8.50;84.10
44431;DHT22;30135;47.866;-4.222;2023-02-25T02:59:17;8.60;84.20
44431;DHT22;30135;47.866;-4.222;2023-02-25T03:01:58;8.50;84.10
44431;DHT22;30135;47.866;-4.222;2023-02-25T03:04:32;8.50;84.10
44431;DHT22;30135;47.866;-4.222;2023-02-25T03:07:07;8.50;85.00
44431;DHT22;30135;47.866;-4.222;2023-02-25T03:09:42;8.50;84.20
44431;DHT22;30135;47.866;-4.222;2023-02-25T03:12:08;8.50;84.20
44431;DHT22;30135;47.866;-4.222;2023-02-25T03:14:37;8.50;84.30
44431;DHT22;30135;47.866;-4.222;2023-02-25T03:17:10;8.50;84.30
44431;DHT22;30135;47.866;-4.222;2023-02-25T03:22:25;8.40;84.30
44431;DHT22;30135;47.866;-4.222;2023-02-25T03:27:32;8.50;84.50
44431;DHT22;30135;47.866;-4.222;2023-02-25T03:32:32;8.40;84.50
44431;DHT22;30135;47.866;-4.222;2023-02-25T03:35:01;8.40;84.50
44431;DHT22;30135;47.866;-4.222;2023-02-25T03:37:30;8.40;84.60
44431;DHT22;30135;47.866;-4.222;2023-02-25T03:40:00;8.30;84.60
44431;DHT22;30135;47.866;-4.222;2023-02-25T03:42:35;8.30;84.70
44431;DHT22;30135;47.866;-4.222;2023-02-25T03:45:07;8.30;84.80
44431;DHT22;30135;47.866;-4.222;2023-02-25T03:47:36;8.30;84.80
44431;DHT22;30135;47.866;-4.222;2023-02-25T03:50:24;8.30;85.00
44431;DHT22;30135;47.866;-4.222;2023-02-25T03:52:54;8.30;85.10
44431;DHT22;30135;47.866;-4.222;2023-02-25T03:55:20;8.30;85.10
44431;DHT22;30135;47.866;-4.222;2023-02-25T03:57:50;8.30;85.10
44431;DHT22;30135;47.866;-4.222;2023-02-25T04:00:29;8.30;85.20
44431;DHT22;30135;47.866;-4.222;2023-02-25T04:02:57;8.30;85.20
44431;DHT22;30135;47.866;-4.222;2023-02-25T04:05:24;8.20;85.10
44431;DHT22;30135;47.866;-4.222;2023-02-25T04:07:57;8.20;85.30
44431;DHT22;30135;47.866;-4.222;2023-02-25T04:10:24;8.20;85.40
44431;DHT22;30135;47.866;-4.222;2023-02-25T04:12:50;8.20;85.30
44431;DHT22;30135;47.866;-4.222;2023-02-25T04:15:18;8.20;85.30
44431;DHT22;30135;47.866;-4.222;2023-02-25T04:17:45;8.20;85.40
44431;DHT22;30135;47.866;-4.222;2023-02-25T04:20:13;8.20;85.50
44431;DHT22;30135;47.866;-4.222;2023-02-25T04:22:40;8.20;85.50
44431;DHT22;30135;47.866;-4.222;2023-02-25T04:25:07;8.20;85.50
44431;DHT22;30135;47.866;-4.222;2023-02-25T04:27:33;8.20;85.50
44431;DHT22;30135;47.866;-4.222;2023-02-25T04:29:59;8.20;85.50
44431;DHT22;30135;47.866;-4.222;2023-02-25T04:32:25;8.20;86.30
44431;DHT22;30135;47.866;-4.222;2023-02-25T04:34:51;8.20;85.50
44431;DHT22;30135;47.866;-4.222;2023-02-25T04:37:17;8.20;85.40
44431;DHT22;30135;47.866;-4.222;2023-02-25T04:39:43;8.20;85.50
44431;DHT22;30135;47.866;-4.222;2023-02-25T04:42:09;8.20;85.50
44431;DHT22;30135;47.866;-4.222;2023-02-25T04:44:35;8.20;85.50
44431;DHT22;30135;47.866;-4.222;2023-02-25T04:47:01;8.10;86.20
44431;DHT22;30135;47.866;-4.222;2023-02-25T04:49:27;8.20;85.50
44431;DHT22;30135;47.866;-4.222;2023-02-25T04:51:53;8.10;85.50
44431;DHT22;30135;47.866;-4.222;2023-02-25T04:54:20;8.10;85.50
44431;DHT22;30135;47.866;-4.222;2023-02-25T04:56:46;8.10;85.60
44431;DHT22;30135;47.866;-4.222;2023-02-25T04:59:14;8.10;85.60
44431;DHT22;30135;47.866;-4.222;2023-02-25T05:01:40;8.10;85.50
44431;DHT22;30135;47.866;-4.222;2023-02-25T05:04:07;8.10;85.50
44431;DHT22;30135;47.866;-4.222;2023-02-25T05:06:33;8.10;85.50
44431;DHT22;30135;47.866;-4.222;2023-02-25T05:08:59;8.10;85.40
44431;DHT22;30135;47.866;-4.222;2023-02-25T05:11:27;8.10;85.40
44431;DHT22;30135;47.866;-4.222;2023-02-25T05:13:55;8.10;86.20
44431;DHT22;30135;47.866;-4.222;2023-02-25T05:16:21;8.10;85.40
44431;DHT22;30135;47.866;-4.222;2023-02-25T05:18:47;8.10;85.50
44431;DHT22;30135;47.866;-4.222;2023-02-25T05:21:19;8.10;85.50
44431;DHT22;30135;47.866;-4.222;2023-02-25T05:23:48;8.00;85.40
44431;DHT22;30135;47.866;-4.222;2023-02-25T05:26:16;8.00;85.30
44431;DHT22;30135;47.866;-4.222;2023-02-25T05:28:56;8.10;85.40
44431;DHT22;30135;47.866;-4.222;2023-02-25T05:31:23;8.00;85.30
44431;DHT22;30135;47.866;-4.222;2023-02-25T05:33:50;8.00;85.30
44431;DHT22;30135;47.866;-4.222;2023-02-25T05:36:17;8.00;85.30
44431;DHT22;30135;47.866;-4.222;2023-02-25T05:38:43;8.00;85.40
44431;DHT22;30135;47.866;-4.222;2023-02-25T05:41:11;8.00;85.50
44431;DHT22;30135;47.866;-4.222;2023-02-25T05:43:38;7.90;85.20
44431;DHT22;30135;47.866;-4.222;2023-02-25T05:46:05;7.90;85.30
44431;DHT22;30135;47.866;-4.222;2023-02-25T05:48:36;7.90;85.40
44431;DHT22;30135;47.866;-4.222;2023-02-25T05:51:13;7.90;85.50
44431;DHT22;30135;47.866;-4.222;2023-02-25T05:53:41;7.90;85.50
44431;DHT22;30135;47.866;-4.222;2023-02-25T05:56:12;7.90;85.50
44431;DHT22;30135;47.866;-4.222;2023-02-25T05:58:39;8.00;85.50
44431;DHT22;30135;47.866;-4.222;2023-02-25T06:01:07;8.00;85.40
44431;DHT22;30135;47.866;-4.222;2023-02-25T06:03:39;7.90;85.30
44431;DHT22;30135;47.866;-4.222;2023-02-25T06:06:06;7.90;85.30
44431;DHT22;30135;47.866;-4.222;2023-02-25T06:08:33;7.90;85.30
44431;DHT22;30135;47.866;-4.222;2023-02-25T06:11:00;7.90;85.40
44431;DHT22;30135;47.866;-4.222;2023-02-25T06:13:27;7.90;85.40
44431;DHT22;30135;47.866;-4.222;2023-02-25T06:15:53;7.90;85.50
44431;DHT22;30135;47.866;-4.222;2023-02-25T06:18:19;7.80;85.50
44431;DHT22;30135;47.866;-4.222;2023-02-25T06:20:45;7.90;85.60
44431;DHT22;30135;47.866;-4.222;2023-02-25T06:23:11;7.90;85.70
44431;DHT22;30135;47.866;-4.222;2023-02-25T06:25:37;7.90;85.60
44431;DHT22;30135;47.866;-4.222;2023-02-25T06:28:04;7.90;85.70
44431;DHT22;30135;47.866;-4.222;2023-02-25T06:30:30;7.90;85.60
44431;DHT22;30135;47.866;-4.222;2023-02-25T06:32:56;7.80;85.60
44431;DHT22;30135;47.866;-4.222;2023-02-25T06:35:23;7.80;85.70
44431;DHT22;30135;47.866;-4.222;2023-02-25T06:37:53;7.80;85.80
44431;DHT22;30135;47.866;-4.222;2023-02-25T06:40:20;7.80;85.80
44431;DHT22;30135;47.866;-4.222;2023-02-25T06:42:47;7.80;85.80
44431;DHT22;30135;47.866;-4.222;2023-02-25T06:45:13;7.80;85.80
44431;DHT22;30135;47.866;-4.222;2023-02-25T06:47:39;7.80;86.00
44431;DHT22;30135;47.866;-4.222;2023-02-25T06:50:06;7.80;86.00
44431;DHT22;30135;47.866;-4.222;2023-02-25T06:52:32;7.80;85.90
44431;DHT22;30135;47.866;-4.222;2023-02-25T06:55:02;7.80;85.90
44431;DHT22;30135;47.866;-4.222;2023-02-25T06:57:32;7.80;85.90
44431;DHT22;30135;47.866;-4.222;2023-02-25T06:59:58;7.80;86.00
44431;DHT22;30135;47.866;-4.222;2023-02-25T07:02:24;7.80;86.10
44431;DHT22;30135;47.866;-4.222;2023-02-25T07:04:53;7.70;86.10
44431;DHT22;30135;47.866;-4.222;2023-02-25T07:07:21;7.80;86.20
44431;DHT22;30135;47.866;-4.222;2023-02-25T07:09:47;7.80;86.10
44431;DHT22;30135;47.866;-4.222;2023-02-25T07:12:13;7.80;86.20
44431;DHT22;30135;47.866;-4.222;2023-02-25T07:14:39;7.80;86.20
44431;DHT22;30135;47.866;-4.222;2023-02-25T07:17:05;7.80;86.20
44431;DHT22;30135;47.866;-4.222;2023-02-25T07:19:31;7.80;86.20
44431;DHT22;30135;47.866;-4.222;2023-02-25T07:22:04;7.80;86.20
44431;DHT22;30135;47.866;-4.222;2023-02-25T07:24:30;7.80;86.20
44431;DHT22;30135;47.866;-4.222;2023-02-25T07:26:56;7.90;86.20
44431;DHT22;30135;47.866;-4.222;2023-02-25T07:29:22;7.90;86.10
44431;DHT22;30135;47.866;-4.222;2023-02-25T07:31:48;7.90;86.10
44431;DHT22;30135;47.866;-4.222;2023-02-25T07:34:14;7.80;86.00
44431;DHT22;30135;47.866;-4.222;2023-02-25T07:36:40;7.80;86.00
44431;DHT22;30135;47.866;-4.222;2023-02-25T07:39:09;7.80;86.00
44431;DHT22;30135;47.866;-4.222;2023-02-25T07:41:36;7.80;86.00
44431;DHT22;30135;47.866;-4.222;2023-02-25T07:44:04;7.80;86.00
44431;DHT22;30135;47.866;-4.222;2023-02-25T07:46:31;7.80;86.10
44431;DHT22;30135;47.866;-4.222;2023-02-25T07:48:58;7.80;86.10
44431;DHT22;30135;47.866;-4.222;2023-02-25T07:51:24;7.80;86.20
44431;DHT22;30135;47.866;-4.222;2023-02-25T07:53:52;7.80;86.20
44431;DHT22;30135;47.866;-4.222;2023-02-25T07:56:21;7.80;86.20
44431;DHT22;30135;47.866;-4.222;2023-02-25T07:58:48;7.80;86.20
44431;DHT22;30135;47.866;-4.222;2023-02-25T08:03:55;7.80;85.90
44431;DHT22;30135;47.866;-4.222;2023-02-25T08:06:34;7.80;86.10
44431;DHT22;30135;47.866;-4.222;2023-02-25T08:09:03;7.80;86.00
44431;DHT22;30135;47.866;-4.222;2023-02-25T08:11:31;7.80;85.90
44431;DHT22;30135;47.866;-4.222;2023-02-25T08:13:59;7.90;86.00
44431;DHT22;30135;47.866;-4.222;2023-02-25T08:16:26;7.90;86.10
44431;DHT22;30135;47.866;-4.222;2023-02-25T08:18:53;7.90;86.00
44431;DHT22;30135;47.866;-4.222;2023-02-25T08:21:20;7.90;85.80
44431;DHT22;30135;47.866;-4.222;2023-02-25T08:23:48;7.90;85.80
44431;DHT22;30135;47.866;-4.222;2023-02-25T08:26:18;8.00;85.80
44431;DHT22;30135;47.866;-4.222;2023-02-25T08:28:47;7.90;85.60
44431;DHT22;30135;47.866;-4.222;2023-02-25T08:31:15;8.00;85.60
44431;DHT22;30135;47.866;-4.222;2023-02-25T08:33:44;8.00;85.40
44431;DHT22;30135;47.866;-4.222;2023-02-25T08:36:17;8.10;85.50
44431;DHT22;30135;47.866;-4.222;2023-02-25T08:38:45;8.00;85.20
44431;DHT22;30135;47.866;-4.222;2023-02-25T08:41:12;8.10;85.20
44431;DHT22;30135;47.866;-4.222;2023-02-25T08:43:38;8.10;85.10
44431;DHT22;30135;47.866;-4.222;2023-02-25T08:46:05;8.10;84.80
44431;DHT22;30135;47.866;-4.222;2023-02-25T08:48:33;8.10;84.60
44431;DHT22;30135;47.866;-4.222;2023-02-25T08:51:07;8.10;84.80
44431;DHT22;30135;47.866;-4.222;2023-02-25T08:53:39;8.20;84.80
44431;DHT22;30135;47.866;-4.222;2023-02-25T08:56:07;8.20;84.50
44431;DHT22;30135;47.866;-4.222;2023-02-25T08:58:35;8.20;84.40
44431;DHT22;30135;47.866;-4.222;2023-02-25T09:01:09;8.20;84.40
44431;DHT22;30135;47.866;-4.222;2023-02-25T09:03:44;8.30;84.20
44431;DHT22;30135;47.866;-4.222;2023-02-25T09:06:22;8.30;84.10
44431;DHT22;30135;47.866;-4.222;2023-02-25T09:08:51;8.30;84.00
44431;DHT22;30135;47.866;-4.222;2023-02-25T09:11:20;8.30;83.90
44431;DHT22;30135;47.866;-4.222;2023-02-25T09:13:50;8.40;83.70
44431;DHT22;30135;47.866;-4.222;2023-02-25T09:16:16;8.40;83.70
44431;DHT22;30135;47.866;-4.222;2023-02-25T09:18:48;8.40;83.60
44431;DHT22;30135;47.866;-4.222;2023-02-25T09:21:16;8.40;83.20
44431;DHT22;30135;47.866;-4.222;2023-02-25T09:23:43;8.40;83.10
44431;DHT22;30135;47.866;-4.222;2023-02-25T09:26:11;8.40;83.10
44431;DHT22;30135;47.866;-4.222;2023-02-25T09:28:38;8.40;83.10
44431;DHT22;30135;47.866;-4.222;2023-02-25T09:31:04;8.40;83.00
44431;DHT22;30135;47.866;-4.222;2023-02-25T09:33:31;8.50;82.80
44431;DHT22;30135;47.866;-4.222;2023-02-25T09:36:09;8.50;82.90
44431;DHT22;30135;47.866;-4.222;2023-02-25T09:38:41;8.50;82.70
44431;DHT22;30135;47.866;-4.222;2023-02-25T09:41:31;8.50;82.50
44431;DHT22;30135;47.866;-4.222;2023-02-25T09:44:10;8.50;82.20
44431;DHT22;30135;47.866;-4.222;2023-02-25T09:55:21;8.50;81.90
44431;DHT22;30135;47.866;-4.222;2023-02-25T09:58:13;8.60;81.60
44431;DHT22;30135;47.866;-4.222;2023-02-25T10:03:50;8.60;81.70
44431;DHT22;30135;47.866;-4.222;2023-02-25T10:06:42;8.70;81.80
44431;DHT22;30135;47.866;-4.222;2023-02-25T10:11:55;8.70;81.10
44431;DHT22;30135;47.866;-4.222;2023-02-25T10:17:43;8.80;81.10
44431;DHT22;30135;47.866;-4.222;2023-02-25T10:26:34;8.80;80.40
44431;DHT22;30135;47.866;-4.222;2023-02-25T10:28:45;8.80;80.30
44431;DHT22;30135;47.866;-4.222;2023-02-25T10:31:18;8.90;80.20
44431;DHT22;30135;47.866;-4.222;2023-02-25T10:33:48;8.90;80.10
44431;DHT22;30135;47.866;-4.222;2023-02-25T10:36:33;8.90;80.00
44431;DHT22;30135;47.866;-4.222;2023-02-25T10:39:04;8.90;79.30
44431;DHT22;30135;47.866;-4.222;2023-02-25T10:41:30;9.00;79.70
44431;DHT22;30135;47.866;-4.222;2023-02-25T10:43:56;9.00;79.30
44431;DHT22;30135;47.866;-4.222;2023-02-25T10:46:31;9.00;79.30
44431;DHT22;30135;47.866;-4.222;2023-02-25T10:49:24;9.00;79.10
44431;DHT22;30135;47.866;-4.222;2023-02-25T10:52:03;9.00;78.80
44431;DHT22;30135;47.866;-4.222;2023-02-25T10:54:34;9.00;79.20
44431;DHT22;30135;47.866;-4.222;2023-02-25T10:57:26;9.00;79.10
44431;DHT22;30135;47.866;-4.222;2023-02-25T11:00:04;9.10;79.20
44431;DHT22;30135;47.866;-4.222;2023-02-25T11:02:41;9.10;79.00
44431;DHT22;30135;47.866;-4.222;2023-02-25T11:05:31;9.10;79.00
44431;DHT22;30135;47.866;-4.222;2023-02-25T11:16:37;9.20;78.50
44431;DHT22;30135;47.866;-4.222;2023-02-25T11:19:12;9.20;78.50
44431;DHT22;30135;47.866;-4.222;2023-02-25T11:21:41;9.20;78.50
44431;DHT22;30135;47.866;-4.222;2023-02-25T11:24:16;9.20;78.60
44431;DHT22;30135;47.866;-4.222;2023-02-25T11:26:47;9.30;78.40
44431;DHT22;30135;47.866;-4.222;2023-02-25T11:29:26;9.30;78.30
44431;DHT22;30135;47.866;-4.222;2023-02-25T11:32:10;9.30;78.00
44431;DHT22;30135;47.866;-4.222;2023-02-25T11:34:52;9.30;78.00
44431;DHT22;30135;47.866;-4.222;2023-02-25T11:37:40;9.30;78.00
44431;DHT22;30135;47.866;-4.222;2023-02-25T11:43:22;9.40;78.70
44431;DHT22;30135;47.866;-4.222;2023-02-25T11:51:45;9.50;77.80
44431;DHT22;30135;47.866;-4.222;2023-02-25T11:57:03;9.60;77.40
44431;DHT22;30135;47.866;-4.222;2023-02-25T11:59:50;9.60;77.30
44431;DHT22;30135;47.866;-4.222;2023-02-25T12:05:20;9.60;77.60
44431;DHT22;30135;47.866;-4.222;2023-02-25T12:26:34;9.90;77.20
44431;DHT22;30135;47.866;-4.222;2023-02-25T12:32:32;9.90;76.50
44431;DHT22;30135;47.866;-4.222;2023-02-25T12:38:32;10.00;76.70
44431;DHT22;30135;47.866;-4.222;2023-02-25T12:41:43;10.00;76.00
44431;DHT22;30135;47.866;-4.222;2023-02-25T13:00:35;10.00;75.50
44431;DHT22;30135;47.866;-4.222;2023-02-25T13:12:54;10.10;75.40
44431;DHT22;30135;47.866;-4.222;2023-02-25T13:18:30;10.10;74.90
44431;DHT22;30135;47.866;-4.222;2023-02-25T13:38:12;10.20;74.80
44431;DHT22;30135;47.866;-4.222;2023-02-25T13:44:16;10.20;74.70
44431;DHT22;30135;47.866;-4.222;2023-02-25T13:49:48;10.30;74.20
44431;DHT22;30135;47.866;-4.222;2023-02-25T14:10:36;10.30;73.00
44431;DHT22;30135;47.866;-4.222;2023-02-25T14:23:03;10.20;72.70
44431;DHT22;30135;47.866;-4.222;2023-02-25T14:31:13;10.20;72.50
44431;DHT22;30135;47.866;-4.222;2023-02-25T14:34:05;10.20;72.40
44431;DHT22;30135;47.866;-4.222;2023-02-25T14:37:07;10.10;72.30
44431;DHT22;30135;47.866;-4.222;2023-02-25T14:40:06;10.20;71.90
44431;DHT22;30135;47.866;-4.222;2023-02-25T14:43:00;10.20;71.60
44431;DHT22;30135;47.866;-4.222;2023-02-25T15:21:46;10.10;70.20
44431;DHT22;30135;47.866;-4.222;2023-02-25T15:24:38;10.10;70.30
44431;DHT22;30135;47.866;-4.222;2023-02-25T15:30:10;10.00;70.60
44431;DHT22;30135;47.866;-4.222;2023-02-25T15:32:57;10.00;70.90
44431;DHT22;30135;47.866;-4.222;2023-02-25T15:38:18;10.00;71.20
44431;DHT22;30135;47.866;-4.222;2023-02-25T15:40:51;10.00;71.40
44431;DHT22;30135;47.866;-4.222;2023-02-25T15:48:34;9.90;71.30
44431;DHT22;30135;47.866;-4.222;2023-02-25T15:51:04;9.90;71.50
44431;DHT22;30135;47.866;-4.222;2023-02-25T15:53:38;9.90;71.80
44431;DHT22;30135;47.866;-4.222;2023-02-25T16:06:11;9.80;70.70
44431;DHT22;30135;47.866;-4.222;2023-02-25T16:14:15;9.80;69.70
44431;DHT22;30135;47.866;-4.222;2023-02-25T16:20:00;9.80;69.90
44431;DHT22;30135;47.866;-4.222;2023-02-25T16:22:33;9.70;69.60
44431;DHT22;30135;47.866;-4.222;2023-02-25T16:25:00;9.70;70.10
44431;DHT22;30135;47.866;-4.222;2023-02-25T16:30:36;9.70;69.90
44431;DHT22;30135;47.866;-4.222;2023-02-25T16:36:35;9.70;69.80
44431;DHT22;30135;47.866;-4.222;2023-02-25T16:39:22;9.70;69.70
44431;DHT22;30135;47.866;-4.222;2023-02-25T16:41:51;9.70;69.80
44431;DHT22;30135;47.866;-4.222;2023-02-25T16:44:41;9.70;69.90
44431;DHT22;30135;47.866;-4.222;2023-02-25T16:47:28;9.70;69.60
44431;DHT22;30135;47.866;-4.222;2023-02-25T16:50:14;9.70;69.80
44431;DHT22;30135;47.866;-4.222;2023-02-25T16:52:46;9.70;69.70
44431;DHT22;30135;47.866;-4.222;2023-02-25T16:55:38;9.70;69.30
44431;DHT22;30135;47.866;-4.222;2023-02-25T17:01:00;9.70;70.50
44431;DHT22;30135;47.866;-4.222;2023-02-25T17:03:41;9.70;70.80
44431;DHT22;30135;47.866;-4.222;2023-02-25T17:06:16;9.70;71.10
44431;DHT22;30135;47.866;-4.222;2023-02-25T17:08:45;9.70;71.20
44431;DHT22;30135;47.866;-4.222;2023-02-25T17:11:17;9.70;71.20
44431;DHT22;30135;47.866;-4.222;2023-02-25T17:13:45;9.60;71.30
44431;DHT22;30135;47.866;-4.222;2023-02-25T17:18:50;9.60;72.00
44431;DHT22;30135;47.866;-4.222;2023-02-25T17:21:26;9.60;71.80
44431;DHT22;30135;47.866;-4.222;2023-02-25T17:23:56;9.60;71.90
44431;DHT22;30135;47.866;-4.222;2023-02-25T17:26:24;9.60;72.00
44431;DHT22;30135;47.866;-4.222;2023-02-25T17:28:54;9.60;72.10
44431;DHT22;30135;47.866;-4.222;2023-02-25T17:31:25;9.50;72.20
44431;DHT22;30135;47.866;-4.222;2023-02-25T17:33:54;9.50;72.30
44431;DHT22;30135;47.866;-4.222;2023-02-25T17:36:33;9.50;72.80
44431;DHT22;30135;47.866;-4.222;2023-02-25T17:39:03;9.50;72.60
44431;DHT22;30135;47.866;-4.222;2023-02-25T17:41:32;9.50;72.60
44431;DHT22;30135;47.866;-4.222;2023-02-25T17:43:59;9.50;72.60
44431;DHT22;30135;47.866;-4.222;2023-02-25T17:46:37;9.50;72.50
44431;DHT22;30135;47.866;-4.222;2023-02-25T17:51:59;9.40;72.60
44431;DHT22;30135;47.866;-4.222;2023-02-25T17:54:30;9.40;72.40
44431;DHT22;30135;47.866;-4.222;2023-02-25T17:57:21;9.40;72.30
44431;DHT22;30135;47.866;-4.222;2023-02-25T17:59:57;9.30;72.30
44431;DHT22;30135;47.866;-4.222;2023-02-25T18:03:16;9.30;72.30
44431;DHT22;30135;47.866;-4.222;2023-02-25T18:05:56;9.30;72.20
44431;DHT22;30135;47.866;-4.222;2023-02-25T18:08:51;9.30;72.20
44431;DHT22;30135;47.866;-4.222;2023-02-25T18:11:35;9.20;72.10
44431;DHT22;30135;47.866;-4.222;2023-02-25T18:14:26;9.20;72.30
44431;DHT22;30135;47.866;-4.222;2023-02-25T18:16:59;9.10;72.30
44431;DHT22;30135;47.866;-4.222;2023-02-25T18:19:38;9.10;72.20
44431;DHT22;30135;47.866;-4.222;2023-02-25T18:22:07;9.10;72.20
44431;DHT22;30135;47.866;-4.222;2023-02-25T18:24:54;9.10;72.10
44431;DHT22;30135;47.866;-4.222;2023-02-25T18:27:26;9.00;72.10
44431;DHT22;30135;47.866;-4.222;2023-02-25T18:30:22;9.00;72.20
44431;DHT22;30135;47.866;-4.222;2023-02-25T18:32:50;9.00;71.80
44431;DHT22;30135;47.866;-4.222;2023-02-25T18:35:19;9.00;72.00
44431;DHT22;30135;47.866;-4.222;2023-02-25T18:37:48;9.00;72.10
44431;DHT22;30135;47.866;-4.222;2023-02-25T18:40:32;9.00;72.10
44431;DHT22;30135;47.866;-4.222;2023-02-25T18:43:03;9.00;72.00
44431;DHT22;30135;47.866;-4.222;2023-02-25T18:45:36;9.00;72.10
44431;DHT22;30135;47.866;-4.222;2023-02-25T18:48:02;8.90;72.10
44431;DHT22;30135;47.866;-4.222;2023-02-25T18:50:30;8.90;72.20
44431;DHT22;30135;47.866;-4.222;2023-02-25T18:52:58;8.90;72.10
44431;DHT22;30135;47.866;-4.222;2023-02-25T18:55:27;8.90;72.10
44431;DHT22;30135;47.866;-4.222;2023-02-25T18:57:54;8.90;72.00
44431;DHT22;30135;47.866;-4.222;2023-02-25T19:00:25;8.90;72.00
44431;DHT22;30135;47.866;-4.222;2023-02-25T19:02:57;8.90;72.20
44431;DHT22;30135;47.866;-4.222;2023-02-25T19:05:26;8.90;72.30
44431;DHT22;30135;47.866;-4.222;2023-02-25T19:07:54;8.90;72.30
44431;DHT22;30135;47.866;-4.222;2023-02-25T19:10:29;8.90;72.40
44431;DHT22;30135;47.866;-4.222;2023-02-25T19:13:18;8.90;72.40
44431;DHT22;30135;47.866;-4.222;2023-02-25T19:15:46;8.90;72.60
44431;DHT22;30135;47.866;-4.222;2023-02-25T19:18:13;8.90;72.50
44431;DHT22;30135;47.866;-4.222;2023-02-25T19:20:42;8.90;72.50
44431;DHT22;30135;47.866;-4.222;2023-02-25T19:23:14;8.80;72.60
44431;DHT22;30135;47.866;-4.222;2023-02-25T19:25:42;8.80;72.60
44431;DHT22;30135;47.866;-4.222;2023-02-25T19:28:09;8.80;72.60
44431;DHT22;30135;47.866;-4.222;2023-02-25T19:30:39;8.80;72.70
44431;DHT22;30135;47.866;-4.222;2023-02-25T19:33:07;8.80;72.80
44431;DHT22;30135;47.866;-4.222;2023-02-25T19:35:37;8.80;72.90
44431;DHT22;30135;47.866;-4.222;2023-02-25T19:38:05;8.80;72.90
44431;DHT22;30135;47.866;-4.222;2023-02-25T19:40:33;8.70;73.10
44431;DHT22;30135;47.866;-4.222;2023-02-25T19:43:00;8.80;73.20
44431;DHT22;30135;47.866;-4.222;2023-02-25T19:45:26;8.70;73.20
44431;DHT22;30135;47.866;-4.222;2023-02-25T19:47:53;8.70;73.30
44431;DHT22;30135;47.866;-4.222;2023-02-25T19:50:22;8.70;73.40
44431;DHT22;30135;47.866;-4.222;2023-02-25T19:52:50;8.70;73.40
44431;DHT22;30135;47.866;-4.222;2023-02-25T19:55:18;8.70;73.40
44431;DHT22;30135;47.866;-4.222;2023-02-25T19:57:44;8.70;73.50
44431;DHT22;30135;47.866;-4.222;2023-02-25T20:00:18;8.70;73.50
44431;DHT22;30135;47.866;-4.222;2023-02-25T20:02:45;8.70;73.60
44431;DHT22;30135;47.866;-4.222;2023-02-25T20:05:12;8.70;73.50
44431;DHT22;30135;47.866;-4.222;2023-02-25T20:07:39;8.70;73.60
44431;DHT22;30135;47.866;-4.222;2023-02-25T20:10:08;8.70;73.60
44431;DHT22;30135;47.866;-4.222;2023-02-25T20:12:36;8.70;73.90
44431;DHT22;30135;47.866;-4.222;2023-02-25T20:15:04;8.70;73.80
44431;DHT22;30135;47.866;-4.222;2023-02-25T20:17:31;8.70;73.40
44431;DHT22;30135;47.866;-4.222;2023-02-25T20:19:57;8.60;73.40
44431;DHT22;30135;47.866;-4.222;2023-02-25T20:22:23;8.60;73.50
44431;DHT22;30135;47.866;-4.222;2023-02-25T20:24:49;8.70;73.50
44431;DHT22;30135;47.866;-4.222;2023-02-25T20:27:16;8.60;73.30
44431;DHT22;30135;47.866;-4.222;2023-02-25T20:29:42;8.60;73.50
44431;DHT22;30135;47.866;-4.222;2023-02-25T20:32:08;8.60;73.50